createdAt,value
2022-12-13T00:00:15.394Z,1.78
2022-12-13T00:02:42.033Z,1.77
2022-12-13T00:05:08.877Z,1.78
2022-12-13T00:07:36.369Z,1.78
2022-12-13T00:10:03.337Z,1.78
2022-12-13T00:12:30.527Z,1.80
2022-12-13T00:14:57.077Z,1.80
2022-12-13T00:17:23.800Z,1.81
2022-12-13T00:19:50.380Z,1.80
2022-12-13T00:22:18.179Z,1.83
2022-12-13T00:24:46.270Z,1.85
2022-12-13T00:27:13.091Z,1.87
2022-12-13T00:29:39.742Z,1.88
2022-12-13T00:32:06.424Z,1.88
2022-12-13T00:34:33.028Z,1.86
2022-12-13T00:36:59.724Z,1.84
2022-12-13T00:39:33.874Z,1.87
2022-12-13T00:42:01.698Z,1.87
2022-12-13T00:44:28.272Z,1.88
2022-12-13T00:46:54.999Z,1.87
2022-12-13T00:49:22.010Z,1.88
2022-12-13T00:51:49.739Z,1.86
2022-12-13T00:54:16.576Z,1.84
2022-12-13T00:56:43.211Z,1.84
2022-12-13T00:59:09.981Z,1.82
2022-12-13T01:01:36.717Z,1.81
2022-12-13T01:04:04.553Z,1.82
2022-12-13T01:06:36.968Z,1.82
2022-12-13T01:09:04.620Z,1.81
2022-12-13T01:11:31.268Z,1.83
2022-12-13T01:13:57.944Z,1.80
2022-12-13T01:16:24.515Z,1.79
2022-12-13T01:18:51.153Z,1.79
2022-12-13T01:21:25.375Z,1.76
2022-12-13T01:23:53.204Z,1.78
2022-12-13T01:26:20.660Z,1.78
2022-12-13T01:28:47.581Z,1.80
2022-12-13T01:31:15.310Z,1.80
2022-12-13T01:33:42.036Z,1.78
2022-12-13T01:36:09.716Z,1.76
2022-12-13T01:38:37.794Z,1.71
2022-12-13T01:41:16.661Z,1.65
2022-12-13T01:43:44.656Z,1.67
2022-12-13T01:46:11.613Z,1.69
2022-12-13T01:48:39.829Z,1.68
2022-12-13T01:51:06.616Z,1.65
2022-12-13T01:53:33.901Z,1.64
2022-12-13T01:56:20.742Z,1.66
2022-12-13T01:58:47.364Z,1.69
2022-12-13T02:01:13.905Z,1.68
2022-12-13T02:03:40.548Z,1.70
2022-12-13T02:06:14.759Z,1.71
2022-12-13T02:08:51.077Z,1.73
2022-12-13T02:11:19.277Z,1.72
2022-12-13T02:13:45.892Z,1.72
2022-12-13T02:16:12.539Z,1.75
2022-12-13T02:18:57.804Z,1.78
2022-12-13T02:21:45.917Z,1.78
2022-12-13T02:24:31.086Z,1.78
2022-12-13T02:27:30.355Z,1.82
2022-12-13T02:30:16.429Z,1.84
2022-12-13T02:32:45.792Z,1.81
2022-12-13T02:35:24.124Z,1.84
2022-12-13T02:37:56.880Z,1.87
2022-12-13T02:40:24.400Z,1.89
2022-12-13T02:42:53.529Z,1.89
2022-12-13T02:45:21.404Z,1.89
2022-12-13T02:47:48.034Z,1.83
2022-12-13T02:50:14.670Z,1.84
2022-12-13T02:52:43.165Z,1.85
2022-12-13T02:55:12.964Z,1.89
2022-12-13T02:57:40.873Z,1.92
2022-12-13T03:00:09.001Z,1.94
2022-12-13T03:02:36.191Z,1.98
2022-12-13T03:05:30.406Z,2.03
2022-12-13T03:08:01.893Z,2.00
2022-12-13T03:10:29.969Z,2.01
2022-12-13T03:13:18.325Z,1.99
2022-12-13T03:15:46.837Z,2.00
2022-12-13T03:18:19.988Z,2.01
2022-12-13T03:20:51.167Z,2.02
2022-12-13T03:23:18.430Z,2.03
2022-12-13T03:25:45.345Z,2.01
2022-12-13T03:28:12.727Z,2.00
2022-12-13T03:30:39.589Z,2.01
2022-12-13T03:33:06.197Z,2.01
2022-12-13T03:35:44.721Z,2.01
2022-12-13T03:38:21.818Z,2.03
2022-12-13T03:40:50.905Z,2.03
2022-12-13T03:43:22.188Z,2.04
2022-12-13T03:45:50.082Z,2.06
2022-12-13T03:48:22.183Z,2.09
2022-12-13T03:50:50.330Z,2.12
2022-12-13T03:53:22.461Z,2.12
2022-12-13T03:56:00.870Z,2.12
2022-12-13T03:58:36.568Z,2.12
2022-12-13T04:01:07.468Z,2.13
2022-12-13T04:03:34.366Z,2.15
2022-12-13T04:06:00.935Z,2.14
2022-12-13T04:08:27.653Z,2.13
2022-12-13T04:10:54.231Z,2.10
2022-12-13T04:13:33.198Z,2.14
2022-12-13T04:16:00.442Z,2.15
2022-12-13T04:18:26.977Z,2.13
2022-12-13T04:20:53.523Z,2.13
2022-12-13T04:23:25.363Z,2.14
2022-12-13T04:25:58.473Z,2.13
2022-12-13T04:28:25.090Z,2.13
2022-12-13T04:30:53.052Z,2.13
2022-12-13T04:33:21.370Z,2.14
2022-12-13T04:35:48.207Z,2.14
2022-12-13T04:38:14.826Z,2.14
2022-12-13T04:40:41.388Z,2.15
2022-12-13T04:43:08.018Z,2.14
2022-12-13T04:45:34.620Z,2.16
2022-12-13T04:48:01.264Z,2.15
2022-12-13T04:50:27.891Z,2.16
2022-12-13T04:52:54.499Z,2.16
2022-12-13T04:55:21.021Z,2.17
2022-12-13T04:57:47.625Z,2.19
2022-12-13T05:00:14.630Z,2.18
2022-12-13T05:02:41.645Z,2.20
2022-12-13T05:05:09.399Z,2.23
2022-12-13T05:07:42.713Z,2.22
2022-12-13T05:10:10.194Z,2.22
2022-12-13T05:12:36.750Z,2.26
2022-12-13T05:15:03.687Z,2.27
2022-12-13T05:17:30.377Z,2.29
2022-12-13T05:19:56.973Z,2.28
2022-12-13T05:22:23.526Z,2.29
2022-12-13T05:24:50.744Z,2.28
2022-12-13T05:27:25.966Z,2.29
2022-12-13T05:30:03.834Z,2.31
2022-12-13T05:32:43.268Z,2.32
2022-12-13T05:35:21.968Z,2.32
2022-12-13T05:37:54.567Z,2.31
2022-12-13T05:40:22.360Z,2.33
2022-12-13T05:42:48.924Z,2.33
2022-12-13T05:45:16.625Z,2.32
2022-12-13T05:47:43.493Z,2.33
2022-12-13T05:50:10.771Z,2.35
2022-12-13T05:52:37.313Z,2.36
2022-12-13T05:55:04.072Z,2.39
2022-12-13T05:57:30.719Z,2.39
2022-12-13T05:59:57.478Z,2.41
2022-12-13T06:02:24.371Z,2.43
2022-12-13T06:04:51.127Z,2.46
2022-12-13T06:07:17.855Z,2.48
2022-12-13T06:09:44.513Z,2.51
2022-12-13T06:12:31.231Z,2.52
2022-12-13T06:15:01.186Z,2.53
2022-12-13T06:17:35.236Z,2.55
2022-12-13T06:20:01.972Z,2.58
2022-12-13T06:22:28.532Z,2.58
2022-12-13T06:24:55.313Z,2.59
2022-12-13T06:27:21.942Z,2.61
2022-12-13T06:29:48.594Z,2.59
2022-12-13T06:32:15.194Z,2.58
2022-12-13T06:34:41.797Z,2.58
2022-12-13T06:37:10.316Z,2.59
2022-12-13T06:39:38.041Z,2.61
2022-12-13T06:42:08.972Z,2.60
2022-12-13T06:44:35.736Z,2.61
2022-12-13T06:47:10.418Z,2.62
2022-12-13T06:49:39.856Z,2.61
2022-12-13T06:52:06.709Z,2.59
2022-12-13T06:54:33.385Z,2.60
2022-12-13T06:56:59.997Z,2.62
2022-12-13T06:59:26.650Z,2.63
2022-12-13T07:01:53.415Z,2.60
2022-12-13T07:04:29.943Z,2.53
2022-12-13T07:07:01.064Z,2.15
2022-12-13T07:09:31.892Z,1.86
2022-12-13T07:11:58.789Z,1.57
2022-12-13T07:14:25.418Z,1.25
2022-12-13T07:16:52.035Z,1.11
2022-12-13T07:19:23.864Z,0.97
2022-12-13T07:21:51.564Z,0.84
2022-12-13T07:24:18.117Z,0.69
2022-12-13T07:26:44.759Z,0.57
2022-12-13T07:29:11.345Z,0.52
2022-12-13T07:31:38.015Z,0.47
2022-12-13T07:34:04.575Z,0.40
2022-12-13T07:36:31.298Z,0.37
2022-12-13T07:38:58.433Z,0.40
2022-12-13T07:41:25.743Z,0.37
2022-12-13T07:43:55.002Z,0.40
2022-12-13T07:46:31.946Z,0.48
2022-12-13T07:49:03.923Z,0.44
2022-12-13T07:51:30.606Z,0.41
2022-12-13T07:53:57.517Z,0.46
2022-12-13T07:56:24.145Z,0.49
2022-12-13T07:58:51.064Z,0.51
2022-12-13T08:01:18.713Z,0.52
2022-12-13T08:03:47.562Z,0.57
2022-12-13T08:06:14.198Z,0.60
2022-12-13T08:08:41.935Z,0.64
2022-12-13T08:11:09.749Z,0.63
2022-12-13T08:13:36.730Z,0.69
2022-12-13T08:16:04.570Z,0.72
2022-12-13T08:18:51.088Z,0.79
2022-12-13T08:21:52.397Z,0.88
2022-12-13T08:24:04.630Z,0.86
2022-12-13T08:26:31.259Z,0.89
2022-12-13T08:28:57.872Z,0.92
2022-12-13T08:31:24.454Z,0.96
2022-12-13T08:33:51.098Z,0.97
2022-12-13T08:36:17.836Z,0.98
2022-12-13T08:38:44.946Z,1.00
2022-12-13T08:41:11.771Z,1.08
2022-12-13T08:43:38.309Z,1.11
2022-12-13T08:46:05.106Z,1.19
2022-12-13T08:48:31.906Z,1.20
2022-12-13T08:51:02.394Z,1.26
2022-12-13T08:53:40.548Z,1.31
2022-12-13T08:56:15.889Z,1.36
2022-12-13T08:58:52.238Z,1.41
2022-12-13T09:01:29.509Z,1.48
2022-12-13T09:04:02.206Z,1.58
2022-12-13T09:06:36.500Z,1.66
2022-12-13T09:09:10.676Z,1.65
2022-12-13T09:11:44.768Z,1.69
2022-12-13T09:14:14.089Z,1.75
2022-12-13T09:16:50.447Z,1.79
2022-12-13T09:19:26.172Z,1.88
2022-12-13T09:21:53.425Z,1.91
2022-12-13T09:24:29.773Z,1.93
2022-12-13T09:27:09.198Z,1.94
2022-12-13T09:29:38.027Z,1.98
2022-12-13T09:32:05.475Z,2.01
2022-12-13T09:34:35.198Z,2.00
2022-12-13T09:37:02.179Z,1.99
2022-12-13T09:39:29.539Z,1.99
2022-12-13T09:42:01.471Z,1.98
2022-12-13T09:44:42.782Z,1.99
2022-12-13T09:47:35.063Z,2.06
2022-12-13T09:50:15.344Z,2.10
2022-12-13T09:52:43.239Z,2.18
2022-12-13T09:55:21.493Z,2.30
2022-12-13T09:57:48.375Z,2.35
2022-12-13T10:00:17.962Z,2.33
2022-12-13T10:02:44.693Z,2.31
2022-12-13T10:05:22.841Z,2.28
2022-12-13T10:07:59.631Z,2.32
2022-12-13T10:10:31.249Z,2.41
2022-12-13T10:13:06.524Z,2.43
2022-12-13T10:15:42.658Z,2.45
2022-12-13T10:18:17.592Z,2.50
2022-12-13T10:20:45.508Z,2.67
2022-12-13T10:23:52.581Z,2.81
2022-12-13T10:26:08.553Z,2.92
2022-12-13T10:28:41.670Z,3.03
2022-12-13T10:31:08.291Z,3.12
2022-12-13T10:33:38.409Z,3.20
2022-12-13T10:36:30.199Z,3.34
2022-12-13T10:38:56.805Z,3.37
2022-12-13T10:41:31.050Z,3.40
2022-12-13T10:44:08.052Z,3.49
2022-12-13T10:46:38.620Z,3.50
2022-12-13T10:49:13.466Z,3.51
2022-12-13T10:51:42.884Z,3.65
2022-12-13T10:54:17.359Z,3.85
2022-12-13T10:56:45.920Z,4.01
2022-12-13T10:59:23.464Z,4.12
2022-12-13T11:01:50.467Z,4.19
2022-12-13T11:04:29.771Z,4.23
2022-12-13T11:06:57.454Z,4.28
2022-12-13T11:09:25.207Z,4.36
2022-12-13T11:11:58.730Z,4.26
2022-12-13T11:14:38.953Z,4.27
2022-12-13T11:17:09.529Z,4.28
2022-12-13T11:19:39.265Z,4.37
2022-12-13T11:22:05.948Z,4.52
2022-12-13T11:24:33.587Z,4.63
2022-12-13T11:27:01.176Z,4.75
2022-12-13T11:29:46.170Z,4.81
2022-12-13T11:32:22.659Z,4.84
2022-12-13T11:35:04.877Z,4.94
2022-12-13T11:37:34.303Z,5.08
2022-12-13T11:40:04.433Z,5.14
2022-12-13T11:42:37.440Z,5.20
2022-12-13T11:45:13.271Z,5.22
2022-12-13T11:47:43.902Z,5.23
2022-12-13T11:50:33.340Z,5.26
2022-12-13T11:53:07.401Z,5.25
2022-12-13T11:55:40.967Z,5.38
2022-12-13T11:58:16.401Z,5.49
2022-12-13T12:00:48.325Z,5.58
2022-12-13T12:03:24.010Z,5.70
2022-12-13T12:06:01.930Z,5.85
2022-12-13T12:08:32.726Z,5.90
2022-12-13T12:11:12.414Z,5.96
2022-12-13T12:13:51.159Z,5.91
2022-12-13T12:16:33.957Z,5.96
2022-12-13T12:19:01.678Z,6.07
2022-12-13T12:22:12.837Z,6.09
2022-12-13T12:24:30.009Z,6.13
2022-12-13T12:26:59.488Z,6.15
2022-12-13T12:29:28.926Z,6.19
2022-12-13T12:32:08.214Z,6.22
2022-12-13T12:34:38.408Z,6.23
2022-12-13T12:37:13.696Z,6.26
2022-12-13T12:39:44.668Z,6.29
2022-12-13T12:42:14.137Z,6.35
2022-12-13T12:44:50.569Z,6.40
2022-12-13T12:48:07.129Z,6.45
2022-12-13T12:50:37.976Z,6.36
2022-12-13T12:53:10.445Z,6.23
2022-12-13T12:55:43.234Z,6.30
2022-12-13T12:58:29.234Z,6.36
2022-12-13T13:00:56.033Z,6.27
2022-12-13T13:03:26.197Z,6.26
2022-12-13T13:06:03.116Z,6.21
2022-12-13T13:08:36.073Z,6.08
2022-12-13T13:11:03.832Z,6.13
2022-12-13T13:13:36.610Z,6.16
2022-12-13T13:16:32.824Z,6.14
2022-12-13T13:19:06.448Z,6.01
2022-12-13T13:21:33.959Z,5.88
2022-12-13T13:24:07.467Z,5.86
2022-12-13T13:26:36.823Z,5.85
2022-12-13T13:29:27.609Z,5.85
2022-12-13T13:32:02.477Z,5.88
2022-12-13T13:34:33.510Z,5.88
2022-12-13T13:37:01.448Z,5.86
2022-12-13T13:39:27.972Z,5.83
2022-12-13T13:42:13.585Z,5.80
2022-12-13T13:44:46.086Z,5.67
2022-12-13T13:47:22.415Z,5.62
2022-12-13T13:49:55.838Z,5.49
2022-12-13T13:52:32.365Z,5.45
2022-12-13T13:55:17.825Z,5.30
2022-12-13T13:58:11.084Z,5.18
2022-12-13T14:01:00.193Z,5.13
2022-12-13T14:04:05.129Z,5.10
2022-12-13T14:07:10.223Z,5.05
2022-12-13T14:09:49.168Z,4.96
2022-12-13T14:12:41.011Z,4.93
2022-12-13T14:15:29.133Z,4.89
2022-12-13T14:18:02.047Z,4.84
2022-12-13T14:20:41.322Z,4.81
2022-12-13T14:23:14.252Z,4.82
2022-12-13T14:26:04.296Z,4.78
2022-12-13T14:28:51.876Z,4.68
2022-12-13T14:31:23.790Z,4.55
2022-12-13T14:33:56.738Z,4.37
2022-12-13T14:36:35.836Z,4.28
2022-12-13T14:39:24.709Z,4.27
2022-12-13T14:41:56.545Z,4.16
2022-12-13T14:44:30.847Z,4.06
2022-12-13T14:47:00.910Z,3.99
2022-12-13T14:49:54.578Z,3.94
2022-12-13T14:52:27.800Z,3.87
2022-12-13T14:55:04.656Z,3.78
2022-12-13T14:57:33.755Z,3.73
2022-12-13T15:00:22.044Z,3.67
2022-12-13T15:02:54.655Z,3.62
2022-12-13T15:05:29.355Z,3.56
2022-12-13T15:07:56.624Z,3.42
2022-12-13T15:10:40.128Z,3.41
2022-12-13T15:13:07.365Z,3.31
2022-12-13T15:15:36.569Z,3.32
2022-12-13T15:18:10.202Z,3.32
2022-12-13T15:20:41.874Z,3.32
2022-12-13T15:23:21.040Z,3.35
2022-12-13T15:26:03.387Z,3.33
2022-12-13T15:28:34.695Z,3.32
2022-12-13T15:31:02.154Z,3.32
2022-12-13T15:33:34.363Z,3.31
2022-12-13T15:36:24.550Z,3.18
2022-12-13T15:38:54.767Z,3.16
2022-12-13T15:41:34.284Z,3.14
2022-12-13T15:44:28.494Z,3.20
2022-12-13T15:47:08.812Z,3.26
2022-12-13T15:49:55.582Z,3.26
2022-12-13T15:52:34.646Z,3.27
2022-12-13T15:55:02.932Z,3.31
2022-12-13T15:57:32.081Z,3.34
2022-12-13T16:00:15.416Z,3.26
2022-12-13T16:03:08.955Z,3.19
2022-12-13T16:05:39.444Z,3.16
2022-12-13T16:08:30.499Z,3.14
2022-12-13T16:10:58.350Z,3.19
2022-12-13T16:13:33.638Z,3.24
2022-12-13T16:16:10.175Z,3.26
2022-12-13T16:19:00.429Z,3.28
2022-12-13T16:21:28.178Z,3.30
2022-12-13T16:23:54.869Z,3.30
2022-12-13T16:26:24.205Z,3.35
2022-12-13T16:28:51.174Z,3.48
2022-12-13T16:31:24.375Z,3.57
2022-12-13T16:33:51.610Z,3.65
2022-12-13T16:36:18.398Z,3.75
2022-12-13T16:38:45.863Z,3.83
2022-12-13T16:41:15.549Z,3.91
2022-12-13T16:55:41.473Z,4.12
2022-12-13T16:58:14.935Z,4.17
2022-12-13T17:00:45.179Z,4.24
2022-12-13T17:03:15.553Z,4.30
2022-12-13T17:05:44.079Z,4.35
2022-12-13T17:08:13.204Z,4.40
2022-12-13T17:10:40.957Z,4.43
2022-12-13T17:13:12.687Z,4.47
2022-12-13T17:15:41.615Z,4.51
2022-12-13T17:18:10.685Z,4.56
2022-12-13T17:20:37.553Z,4.58
2022-12-13T17:23:05.338Z,4.62
2022-12-13T17:25:32.235Z,4.65
2022-12-13T17:27:59.287Z,4.68
2022-12-13T17:30:26.060Z,4.70
2022-12-13T17:32:53.097Z,4.73
2022-12-13T17:35:19.997Z,4.77
2022-12-13T17:37:46.791Z,4.78
2022-12-13T17:40:13.586Z,4.81
2022-12-13T17:42:40.305Z,4.83
2022-12-13T17:45:07.471Z,4.86
2022-12-13T17:47:34.263Z,4.87
2022-12-13T17:50:01.077Z,4.89
2022-12-13T17:52:27.820Z,4.91
2022-12-13T17:54:54.767Z,4.92
2022-12-13T17:57:21.462Z,4.94
2022-12-13T17:59:48.380Z,4.97
2022-12-13T18:02:17.391Z,4.99
2022-12-13T18:04:44.566Z,5.02
2022-12-13T18:07:11.281Z,5.04
2022-12-13T18:09:38.089Z,5.05
2022-12-13T18:12:04.989Z,5.07
2022-12-13T18:14:31.838Z,5.09
2022-12-13T18:16:58.553Z,5.11
2022-12-13T18:19:30.309Z,5.13
2022-12-13T18:21:57.166Z,5.14
2022-12-13T18:24:23.981Z,5.16
2022-12-13T18:26:50.824Z,5.18
2022-12-13T18:29:17.945Z,5.19
2022-12-13T18:31:44.835Z,5.18
2022-12-13T18:34:11.813Z,5.22
2022-12-13T18:36:39.682Z,5.22
2022-12-13T18:39:06.945Z,5.24
2022-12-13T18:41:34.256Z,5.27
2022-12-13T18:44:03.401Z,5.29
2022-12-13T18:46:32.401Z,5.32
2022-12-13T18:48:59.439Z,5.33
2022-12-13T18:51:26.513Z,5.34
2022-12-13T18:53:54.542Z,5.36
2022-12-13T18:56:21.413Z,5.38
2022-12-13T18:58:57.127Z,5.39
2022-12-13T19:01:27.968Z,5.40
2022-12-13T19:03:55.055Z,5.41
2022-12-13T19:06:25.530Z,5.42
2022-12-13T19:08:55.661Z,5.43
2022-12-13T19:11:29.790Z,5.45
2022-12-13T19:13:57.196Z,5.48
2022-12-13T19:16:25.619Z,5.49
2022-12-13T19:18:52.995Z,5.51
2022-12-13T19:21:21.139Z,5.52
2022-12-13T19:23:55.871Z,5.53
2022-12-13T19:26:25.328Z,5.53
2022-12-13T19:28:51.997Z,5.56
2022-12-13T19:31:18.969Z,5.58
2022-12-13T19:33:46.540Z,5.59
2022-12-13T19:36:14.865Z,5.59
2022-12-13T19:38:42.165Z,5.60
2022-12-13T19:41:10.126Z,5.62
2022-12-13T19:43:37.078Z,5.62
2022-12-13T19:46:04.199Z,5.63
2022-12-13T19:48:33.178Z,5.63
2022-12-13T19:51:02.226Z,5.63
2022-12-13T19:53:30.226Z,5.64
2022-12-13T19:55:57.405Z,5.66
2022-12-13T19:58:24.934Z,5.67
2022-12-13T20:00:52.845Z,5.68
2022-12-13T20:03:23.370Z,5.68
2022-12-13T20:05:56.478Z,5.79
2022-12-13T20:08:23.358Z,5.73
2022-12-13T20:11:04.649Z,5.71
2022-12-13T20:13:33.090Z,5.70
2022-12-13T20:16:00.315Z,5.70
2022-12-13T20:18:27.126Z,5.71
2022-12-13T20:21:15.091Z,5.73
2022-12-13T20:23:49.454Z,5.70
2022-12-13T20:26:19.967Z,5.63
2022-12-13T20:28:47.383Z,5.63
2022-12-13T20:31:16.752Z,5.65
2022-12-13T20:33:43.560Z,5.69
2022-12-13T20:36:23.993Z,5.69
2022-12-13T20:38:52.969Z,5.72
2022-12-13T20:41:19.618Z,5.69
2022-12-13T20:43:48.287Z,5.64
2022-12-13T20:46:15.482Z,5.65
2022-12-13T20:48:42.840Z,5.69
2022-12-13T20:51:10.322Z,5.69
2022-12-13T20:53:40.698Z,5.69
2022-12-13T20:56:08.562Z,5.70
2022-12-13T20:58:39.749Z,5.73
2022-12-13T21:01:08.781Z,5.74
2022-12-13T21:03:35.360Z,5.75
2022-12-13T21:06:01.926Z,5.76
2022-12-13T21:08:47.138Z,5.76
2022-12-13T21:11:26.154Z,5.78
2022-12-13T21:14:00.978Z,5.77
2022-12-13T21:16:38.472Z,5.75
2022-12-13T21:19:06.225Z,5.75
2022-12-13T21:21:32.943Z,5.72
2022-12-13T21:23:59.676Z,5.65
2022-12-13T21:26:30.115Z,5.62
2022-12-13T21:29:02.281Z,5.62
2022-12-13T21:31:29.211Z,5.62
2022-12-13T21:33:56.838Z,5.64
2022-12-13T21:36:24.469Z,5.66
2022-12-13T21:38:58.583Z,5.68
2022-12-13T21:41:30.204Z,5.68
2022-12-13T21:43:58.649Z,5.68
2022-12-13T21:46:47.502Z,5.64
2022-12-13T21:49:14.710Z,5.56
2022-12-13T21:51:47.445Z,5.56
2022-12-13T21:54:14.841Z,5.58
2022-12-13T21:57:00.321Z,5.60
2022-12-13T21:59:27.729Z,5.62
2022-12-13T22:02:17.614Z,5.65
2022-12-13T22:04:44.531Z,5.68
2022-12-13T22:07:14.253Z,5.70
2022-12-13T22:09:41.121Z,5.72
2022-12-13T22:12:08.627Z,5.65
2022-12-13T22:14:35.468Z,5.58
2022-12-13T22:17:02.039Z,5.60
2022-12-13T22:19:28.821Z,5.58
2022-12-13T22:21:55.562Z,5.60
2022-12-13T22:24:22.192Z,5.61
2022-12-13T22:26:48.714Z,5.63
2022-12-13T22:29:15.481Z,5.64
2022-12-13T22:31:42.168Z,5.64
2022-12-13T22:34:09.029Z,5.67
2022-12-13T22:36:35.696Z,5.69
2022-12-13T22:39:02.641Z,5.72
2022-12-13T22:41:29.334Z,5.74
2022-12-13T22:43:56.266Z,5.76
2022-12-13T22:46:22.882Z,5.77
2022-12-13T22:48:51.873Z,5.77
2022-12-13T22:51:19.045Z,5.74
2022-12-13T22:53:46.380Z,5.70
2022-12-13T22:56:14.094Z,5.64
2022-12-13T22:58:40.761Z,5.60
2022-12-13T23:01:11.384Z,5.63
2022-12-13T23:03:38.717Z,5.75
2022-12-13T23:06:09.129Z,5.72
2022-12-13T23:08:41.798Z,5.73
2022-12-13T23:11:28.660Z,5.72
2022-12-13T23:13:56.451Z,5.74
2022-12-13T23:16:23.693Z,5.75
2022-12-13T23:18:50.320Z,5.76
2022-12-13T23:21:17.528Z,5.78
2022-12-13T23:23:44.162Z,5.78
2022-12-13T23:26:12.224Z,5.79
2022-12-13T23:28:38.974Z,5.81
2022-12-13T23:31:05.795Z,5.81
2022-12-13T23:33:32.464Z,5.83
2022-12-13T23:36:01.207Z,5.82
2022-12-13T23:38:30.944Z,5.81
2022-12-13T23:41:01.445Z,5.81
2022-12-13T23:43:29.192Z,5.77
2022-12-13T23:45:55.929Z,5.75
2022-12-13T23:48:26.913Z,5.74
2022-12-13T23:50:54.013Z,5.69
2022-12-13T23:53:20.866Z,5.68
2022-12-13T23:55:48.826Z,5.69
2022-12-13T23:58:16.461Z,5.73
